createdAt,value
2022-08-05T00:00:46.244Z,77.50
2022-08-05T00:03:16.513Z,77.38
2022-08-05T00:06:05.524Z,77.54
2022-08-05T00:08:35.579Z,77.37
2022-08-05T00:11:20.605Z,77.45
2022-08-05T00:13:56.746Z,77.23
2022-08-05T00:16:35.880Z,77.46
2022-08-05T00:19:06.509Z,77.08
2022-08-05T00:21:35.942Z,77.23
2022-08-05T00:24:10.922Z,76.86
2022-08-05T00:26:46.711Z,76.84
2022-08-05T00:29:22.730Z,77.01
2022-08-05T00:32:12.571Z,77.02
2022-08-05T00:35:03.727Z,76.71
2022-08-05T00:37:35.388Z,76.55
2022-08-05T00:40:05.560Z,76.53
2022-08-05T00:42:39.819Z,76.38
2022-08-05T00:45:11.506Z,76.16
2022-08-05T00:47:56.966Z,76.29
2022-08-05T00:50:27.401Z,76.49
2022-08-05T00:52:56.547Z,76.34
2022-08-05T00:55:42.366Z,76.26
2022-08-05T00:58:12.223Z,76.12
2022-08-05T01:00:42.576Z,76.04
2022-08-05T01:03:12.556Z,76.24
2022-08-05T01:05:54.559Z,75.94
2022-08-05T01:08:41.364Z,76.24
2022-08-05T01:11:22.670Z,75.86
2022-08-05T01:14:08.555Z,76.04
2022-08-05T01:16:48.425Z,75.82
2022-08-05T01:19:56.200Z,75.90
2022-08-05T01:22:39.576Z,75.96
2022-08-05T01:25:39.716Z,75.85
2022-08-05T01:28:25.776Z,75.77
2022-08-05T01:31:00.831Z,75.86
2022-08-05T01:33:36.851Z,76.02
2022-08-05T01:36:16.202Z,75.76
2022-08-05T01:38:48.415Z,75.83
2022-08-05T01:41:22.551Z,75.72
2022-08-05T01:43:55.933Z,76.02
2022-08-05T01:46:41.942Z,76.34
2022-08-05T01:49:22.991Z,76.05
2022-08-05T01:51:58.962Z,76.30
2022-08-05T01:54:46.030Z,76.21
2022-08-05T01:58:10.128Z,76.58
2022-08-05T02:00:11.880Z,76.31
2022-08-05T02:02:46.436Z,76.84
2022-08-05T02:05:23.719Z,76.34
2022-08-05T02:08:00.961Z,76.69
2022-08-05T02:10:37.532Z,76.54
2022-08-05T02:13:16.088Z,76.95
2022-08-05T02:15:55.060Z,76.97
2022-08-05T02:18:34.692Z,76.93
2022-08-05T02:21:14.666Z,77.03
2022-08-05T02:23:49.345Z,76.87
2022-08-05T02:26:26.497Z,76.97
2022-08-05T02:28:58.271Z,76.97
2022-08-05T02:31:34.794Z,76.95
2022-08-05T02:34:10.086Z,76.97
2022-08-05T02:36:43.686Z,77.09
2022-08-05T02:39:14.086Z,77.02
2022-08-05T02:42:01.026Z,77.29
2022-08-05T02:44:31.818Z,77.09
2022-08-05T02:47:03.210Z,77.18
2022-08-05T02:49:37.755Z,77.18
2022-08-05T02:52:13.685Z,77.65
2022-08-05T02:54:57.951Z,77.73
2022-08-05T02:58:11.169Z,77.65
2022-08-05T03:00:18.962Z,77.99
2022-08-05T03:02:50.027Z,78.08
2022-08-05T03:05:21.637Z,77.90
2022-08-05T03:08:09.411Z,78.28
2022-08-05T03:10:37.906Z,78.42
2022-08-05T03:13:16.851Z,78.49
2022-08-05T03:15:46.155Z,78.43
2022-08-05T03:18:17.438Z,78.50
2022-08-05T03:20:48.739Z,79.10
2022-08-05T03:23:17.707Z,78.93
2022-08-05T03:26:04.695Z,79.21
2022-08-05T03:28:34.724Z,79.29
2022-08-05T03:31:05.084Z,79.23
2022-08-05T03:33:50.849Z,79.65
2022-08-05T03:36:27.998Z,79.82
2022-08-05T03:38:59.217Z,79.82
2022-08-05T03:41:33.247Z,80.09
2022-08-05T03:44:11.276Z,79.93
2022-08-05T03:46:40.232Z,80.08
2022-08-05T03:49:09.901Z,79.87
2022-08-05T03:52:38.510Z,80.18
2022-08-05T03:55:51.936Z,79.92
2022-08-05T03:57:41.940Z,80.15
2022-08-05T04:00:16.299Z,80.18
2022-08-05T04:02:57.992Z,80.09
2022-08-05T04:05:34.025Z,80.11
2022-08-05T04:08:29.766Z,80.31
2022-08-05T04:10:54.548Z,80.32
2022-08-05T04:13:23.836Z,80.26
2022-08-05T04:16:02.982Z,80.44
2022-08-05T04:18:34.462Z,80.70
2022-08-05T04:21:05.910Z,80.73
2022-08-05T04:24:04.900Z,81.15
2022-08-05T04:26:24.747Z,81.31
2022-08-05T04:28:53.076Z,81.28
2022-08-05T04:31:21.483Z,81.08
2022-08-05T04:34:17.302Z,81.19
2022-08-05T04:36:45.577Z,81.27
2022-08-05T04:39:15.180Z,81.29
2022-08-05T04:41:43.522Z,81.27
2022-08-05T04:44:13.940Z,81.34
2022-08-05T04:46:46.972Z,81.51
2022-08-05T04:49:16.751Z,81.40
2022-08-05T04:52:00.140Z,81.66
2022-08-05T04:54:29.020Z,81.98
2022-08-05T04:56:59.658Z,81.93
2022-08-05T04:59:36.817Z,82.28
2022-08-05T05:02:36.709Z,82.05
2022-08-05T05:05:01.707Z,82.25
2022-08-05T05:07:35.389Z,82.06
2022-08-05T05:10:06.540Z,82.62
2022-08-05T05:12:36.839Z,82.26
2022-08-05T05:15:10.758Z,82.65
2022-08-05T05:17:55.480Z,82.65
2022-08-05T05:20:28.389Z,82.34
2022-08-05T05:22:59.226Z,82.22
2022-08-05T05:25:33.011Z,82.54
2022-08-05T05:28:09.561Z,82.10
2022-08-05T05:30:38.367Z,82.15
2022-08-05T05:33:17.102Z,82.22
2022-08-05T05:35:47.400Z,82.14
2022-08-05T05:38:22.516Z,82.32
2022-08-05T05:40:56.971Z,82.13
2022-08-05T05:43:54.636Z,82.18
2022-08-05T05:46:17.778Z,81.99
2022-08-05T05:48:48.816Z,81.97
2022-08-05T05:51:25.680Z,82.08
2022-08-05T05:53:59.345Z,81.97
2022-08-05T05:56:33.138Z,82.23
2022-08-05T05:59:05.452Z,82.07
2022-08-05T06:01:37.654Z,81.81
2022-08-05T06:04:12.162Z,81.90
2022-08-05T06:06:42.598Z,82.22
2022-08-05T06:09:17.300Z,81.81
2022-08-05T06:12:02.006Z,81.78
2022-08-05T06:14:31.281Z,81.75
2022-08-05T06:17:02.112Z,81.90
2022-08-05T06:19:57.070Z,82.19
2022-08-05T06:22:30.224Z,82.03
2022-08-05T06:25:25.288Z,82.42
2022-08-05T06:28:10.932Z,82.09
2022-08-05T06:30:42.002Z,82.26
2022-08-05T06:33:11.036Z,81.71
2022-08-05T06:36:07.137Z,81.79
2022-08-05T06:38:36.911Z,81.75
2022-08-05T06:41:07.856Z,81.46
2022-08-05T06:43:59.755Z,81.47
2022-08-05T06:46:30.019Z,81.76
2022-08-05T06:49:00.745Z,81.69
2022-08-05T06:51:31.101Z,81.31
2022-08-05T06:54:01.900Z,81.28
2022-08-05T06:56:34.387Z,81.34
2022-08-05T06:59:03.668Z,80.92
2022-08-05T07:01:37.167Z,80.94
2022-08-05T07:04:09.363Z,81.08
2022-08-05T07:06:38.518Z,81.12
2022-08-05T07:09:07.296Z,80.95
2022-08-05T07:11:39.890Z,80.68
2022-08-05T07:14:29.368Z,80.42
2022-08-05T07:18:01.767Z,80.31
2022-08-05T07:22:42.217Z,80.20
2022-08-05T07:25:53.919Z,80.05
2022-08-05T07:28:07.345Z,79.73
2022-08-05T07:30:40.100Z,79.33
2022-08-05T07:33:16.426Z,79.45
2022-08-05T07:36:02.055Z,79.13
2022-08-05T07:38:43.103Z,78.64
2022-08-05T07:42:09.070Z,78.44
2022-08-05T07:44:14.435Z,78.29
2022-08-05T07:46:48.433Z,78.39
2022-08-05T07:49:18.317Z,78.19
2022-08-05T07:51:53.560Z,78.04
2022-08-05T07:54:30.866Z,78.06
2022-08-05T07:57:13.998Z,77.77
2022-08-05T07:59:48.895Z,78.04
2022-08-05T08:02:18.146Z,77.83
2022-08-05T08:04:48.632Z,77.85
2022-08-05T08:07:18.415Z,77.33
2022-08-05T08:09:52.299Z,77.35
2022-08-05T08:12:35.370Z,77.28
2022-08-05T08:15:15.622Z,76.92
2022-08-05T08:17:52.611Z,76.86
2022-08-05T08:21:00.162Z,76.74
2022-08-05T08:24:00.323Z,76.85
2022-08-05T08:26:04.400Z,76.71
2022-08-05T08:28:36.611Z,76.44
2022-08-05T08:31:16.391Z,76.62
2022-08-05T08:33:46.843Z,76.21
2022-08-05T08:36:39.240Z,75.74
2022-08-05T08:39:15.033Z,75.50
2022-08-05T08:41:52.412Z,75.08
2022-08-05T08:45:22.849Z,74.67
2022-08-05T08:48:05.917Z,74.32
2022-08-05T08:50:30.438Z,74.25
2022-08-05T08:53:08.021Z,74.42
2022-08-05T08:56:03.175Z,74.08
2022-08-05T08:58:44.014Z,73.75
2022-08-05T09:01:18.214Z,73.91
2022-08-05T09:03:52.845Z,73.91
2022-08-05T09:06:29.992Z,73.84
2022-08-05T09:09:01.829Z,73.47
2022-08-05T09:11:51.727Z,73.64
2022-08-05T09:14:58.879Z,73.52
2022-08-05T09:17:40.017Z,73.08
2022-08-05T09:20:05.089Z,72.75
2022-08-05T09:23:22.135Z,72.92
2022-08-05T09:26:08.495Z,72.75
2022-08-05T09:28:40.860Z,72.74
2022-08-05T09:31:43.729Z,72.44
2022-08-05T09:34:03.580Z,72.43
2022-08-05T09:36:56.221Z,72.29
2022-08-05T09:39:45.071Z,71.73
2022-08-05T09:42:22.986Z,71.63
2022-08-05T09:45:03.254Z,71.25
2022-08-05T09:47:54.990Z,70.90
2022-08-05T09:50:43.567Z,70.16
2022-08-05T09:53:26.078Z,69.79
2022-08-05T09:56:04.622Z,69.66
2022-08-05T09:58:41.870Z,69.78
2022-08-05T10:01:31.619Z,69.37
2022-08-05T10:04:10.251Z,69.17
2022-08-05T10:06:40.461Z,69.04
2022-08-05T10:09:28.304Z,69.20
2022-08-05T10:12:30.169Z,69.19
2022-08-05T10:15:34.383Z,69.09
2022-08-05T10:18:11.288Z,69.04
2022-08-05T10:20:47.697Z,68.93
2022-08-05T10:23:34.007Z,69.16
2022-08-05T10:26:14.244Z,69.08
2022-08-05T10:28:44.916Z,68.77
2022-08-05T10:32:53.760Z,68.93
2022-08-05T10:34:03.982Z,68.95
2022-08-05T10:36:36.517Z,68.95
2022-08-05T10:39:11.760Z,69.36
2022-08-05T10:42:02.091Z,69.54
2022-08-05T10:44:33.675Z,69.76
2022-08-05T10:47:26.910Z,69.87
2022-08-05T10:50:33.151Z,70.23
2022-08-05T10:52:59.962Z,70.17
2022-08-05T10:55:30.492Z,70.44
2022-08-05T10:58:14.979Z,70.36
2022-08-05T11:00:54.937Z,70.70
2022-08-05T11:03:29.322Z,70.74
2022-08-05T11:06:16.210Z,71.37
2022-08-05T11:09:39.237Z,71.14
2022-08-05T11:12:54.322Z,71.60
2022-08-05T11:16:01.217Z,71.60
2022-08-05T11:18:29.741Z,71.64
2022-08-05T11:20:59.064Z,71.92
2022-08-05T11:24:05.570Z,71.57
2022-08-05T11:26:28.101Z,71.67
2022-08-05T11:28:59.417Z,71.98
2022-08-05T11:31:58.907Z,72.15
2022-08-05T11:34:38.717Z,72.35
2022-08-05T11:38:30.794Z,72.56
2022-08-05T11:40:03.280Z,72.59
2022-08-05T11:42:37.835Z,72.81
2022-08-05T11:45:14.309Z,72.67
2022-08-05T11:47:54.497Z,73.16
2022-08-05T11:50:23.504Z,73.14
2022-08-05T11:52:57.563Z,72.86
2022-08-05T11:55:32.047Z,72.58
2022-08-05T11:58:09.771Z,72.43
2022-08-05T12:00:41.665Z,72.32
2022-08-05T12:03:29.284Z,72.27
2022-08-05T12:06:06.038Z,72.36
2022-08-05T12:08:49.865Z,72.62
2022-08-05T12:11:22.173Z,72.40
2022-08-05T12:13:58.685Z,72.27
2022-08-05T12:16:38.438Z,72.12
2022-08-05T12:19:11.139Z,72.38
2022-08-05T12:21:59.414Z,72.47
2022-08-05T12:24:30.047Z,72.81
2022-08-05T12:26:58.574Z,72.68
2022-08-05T12:29:29.054Z,72.70
2022-08-05T12:32:09.583Z,72.96
2022-08-05T12:34:40.116Z,73.29
2022-08-05T12:37:17.410Z,73.24
2022-08-05T12:39:51.788Z,73.24
2022-08-05T12:42:25.383Z,73.39
2022-08-05T12:44:53.897Z,73.48
2022-08-05T12:47:32.569Z,73.28
2022-08-05T12:50:16.239Z,73.16
2022-08-05T12:52:56.379Z,72.94
2022-08-05T12:55:32.790Z,72.55
2022-08-05T12:58:48.552Z,72.21
2022-08-05T13:02:04.440Z,71.96
2022-08-05T13:03:42.127Z,71.58
2022-08-05T13:06:17.368Z,71.38
2022-08-05T13:08:52.197Z,70.58
2022-08-05T13:11:25.429Z,70.20
2022-08-05T13:14:24.689Z,69.82
2022-08-05T13:16:56.608Z,69.74
2022-08-05T13:19:27.543Z,70.02
2022-08-05T13:22:27.806Z,69.85
2022-08-05T13:25:05.788Z,69.54
2022-08-05T13:27:39.694Z,69.30
2022-08-05T13:30:35.221Z,69.12
2022-08-05T13:33:01.374Z,68.49
2022-08-05T13:35:47.637Z,68.25
2022-08-05T13:38:30.386Z,68.30
2022-08-05T13:41:02.719Z,68.28
2022-08-05T13:43:44.130Z,68.44
2022-08-05T13:46:43.873Z,68.12
2022-08-05T13:49:10.170Z,67.60
2022-08-05T13:51:41.351Z,67.21
2022-08-05T13:54:13.478Z,67.06
2022-08-05T13:56:51.087Z,67.07
2022-08-05T13:59:24.050Z,67.14
2022-08-05T14:01:57.406Z,66.88
2022-08-05T14:04:49.981Z,66.38
2022-08-05T14:07:26.337Z,65.47
2022-08-05T14:10:18.964Z,64.71
2022-08-05T14:12:57.253Z,63.96
2022-08-05T14:16:09.007Z,63.21
2022-08-05T14:18:17.474Z,63.22
2022-08-05T14:20:48.316Z,62.91
2022-08-05T14:23:23.839Z,63.02
2022-08-05T14:25:58.523Z,63.08
2022-08-05T14:28:28.674Z,62.70
2022-08-05T14:30:57.352Z,62.68
2022-08-05T14:33:25.854Z,62.46
2022-08-05T14:35:54.953Z,62.47
2022-08-05T14:38:31.987Z,62.13
2022-08-05T14:41:07.498Z,62.41
2022-08-05T14:43:57.732Z,62.54
2022-08-05T14:46:29.558Z,62.30
2022-08-05T14:49:06.441Z,62.39
2022-08-05T14:51:37.969Z,62.36
2022-08-05T14:54:28.854Z,62.38
2022-08-05T14:56:56.828Z,62.26
2022-08-05T14:59:25.090Z,62.26
2022-08-05T15:01:58.250Z,62.47
2022-08-05T15:04:29.186Z,62.14
2022-08-05T15:07:00.718Z,62.07
2022-08-05T15:09:54.211Z,61.90
2022-08-05T15:12:21.128Z,61.80
2022-08-05T15:14:55.325Z,61.36
2022-08-05T15:17:46.059Z,61.03
2022-08-05T15:20:19.103Z,60.97
2022-08-05T15:22:54.442Z,60.78
2022-08-05T15:25:41.047Z,61.07
2022-08-05T15:28:15.953Z,60.83
2022-08-05T15:30:45.828Z,60.62
2022-08-05T15:33:56.773Z,60.66
2022-08-05T15:36:05.343Z,60.66
2022-08-05T15:38:41.077Z,60.55
2022-08-05T15:41:23.305Z,60.83
2022-08-05T15:43:55.177Z,61.21
2022-08-05T15:46:25.125Z,61.34
2022-08-05T15:49:01.407Z,61.42
2022-08-05T15:52:10.272Z,61.58
2022-08-05T15:54:34.818Z,61.73
2022-08-05T15:57:07.318Z,62.13
2022-08-05T15:59:38.258Z,62.49
2022-08-05T16:02:09.189Z,62.87
2022-08-05T16:04:37.692Z,64.42
2022-08-05T16:07:10.782Z,65.28
2022-08-05T16:09:41.755Z,66.27
2022-08-05T16:12:11.485Z,67.04
2022-08-05T16:14:42.168Z,67.62
2022-08-05T16:17:12.658Z,68.31
2022-08-05T16:20:04.904Z,68.90
2022-08-05T16:22:33.979Z,69.21
2022-08-05T16:25:08.016Z,69.64
2022-08-05T16:27:59.607Z,70.03
2022-08-05T16:30:30.731Z,70.33
2022-08-05T16:33:01.391Z,70.29
2022-08-05T16:35:32.163Z,70.79
2022-08-05T16:38:23.706Z,70.92
2022-08-05T16:40:55.010Z,71.12
2022-08-05T16:43:25.056Z,71.30
2022-08-05T16:46:04.965Z,71.63
2022-08-05T16:48:38.991Z,71.41
2022-08-05T16:51:08.918Z,71.30
2022-08-05T16:54:05.422Z,71.10
2022-08-05T16:56:27.392Z,70.98
2022-08-05T16:58:55.921Z,70.63
2022-08-05T17:01:26.870Z,70.57
2022-08-05T17:03:55.298Z,70.55
2022-08-05T17:06:24.907Z,70.40
2022-08-05T17:08:54.364Z,70.34
2022-08-05T17:11:25.371Z,70.29
2022-08-05T17:14:05.210Z,70.38
2022-08-05T17:16:37.231Z,70.62
2022-08-05T17:19:07.709Z,70.91
2022-08-05T17:21:39.555Z,70.85
2022-08-05T17:24:19.487Z,71.02
2022-08-05T17:26:58.695Z,70.93
2022-08-05T17:29:39.960Z,71.09
2022-08-05T17:32:17.193Z,71.07
2022-08-05T17:34:48.031Z,71.11
2022-08-05T17:37:40.388Z,71.50
2022-08-05T17:40:10.133Z,71.37
2022-08-05T17:42:42.952Z,71.35
2022-08-05T17:45:21.764Z,71.28
2022-08-05T17:47:55.549Z,71.17
2022-08-05T17:50:28.771Z,71.16
2022-08-05T17:53:00.646Z,71.06
2022-08-05T17:55:38.468Z,71.40
2022-08-05T17:58:14.640Z,71.21
2022-08-05T18:00:50.532Z,71.17
2022-08-05T18:03:56.016Z,70.94
2022-08-05T18:06:15.061Z,71.31
2022-08-05T18:08:52.354Z,71.06
2022-08-05T18:11:23.794Z,71.18
2022-08-05T18:13:55.403Z,71.50
2022-08-05T18:16:24.095Z,71.17
2022-08-05T18:18:53.783Z,71.50
2022-08-05T18:21:22.924Z,71.25
2022-08-05T18:23:55.022Z,71.52
2022-08-05T18:26:27.824Z,71.56
2022-08-05T18:28:58.187Z,71.66
2022-08-05T18:31:32.943Z,72.05
2022-08-05T18:34:06.220Z,71.71
2022-08-05T18:36:36.326Z,72.00
2022-08-05T18:39:06.672Z,71.61
2022-08-05T18:41:58.535Z,71.91
2022-08-05T18:44:34.865Z,72.04
2022-08-05T18:47:04.933Z,72.04
2022-08-05T18:49:57.842Z,72.04
2022-08-05T18:52:41.734Z,72.19
2022-08-05T18:55:21.396Z,71.88
2022-08-05T18:57:53.882Z,72.34
2022-08-05T19:00:26.997Z,72.21
2022-08-05T19:03:04.021Z,72.24
2022-08-05T19:06:11.089Z,72.49
2022-08-05T19:08:30.556Z,72.34
2022-08-05T19:11:04.543Z,72.34
2022-08-05T19:13:35.931Z,72.76
2022-08-05T19:16:25.151Z,72.79
2022-08-05T19:18:56.801Z,73.04
2022-08-05T19:21:29.517Z,73.17
2022-08-05T19:24:05.399Z,73.33
2022-08-05T19:26:54.517Z,73.29
2022-08-05T19:29:26.593Z,73.18
2022-08-05T19:32:04.914Z,73.67
2022-08-05T19:34:34.899Z,73.65
2022-08-05T19:37:05.062Z,73.61
2022-08-05T19:39:45.617Z,73.84
2022-08-05T19:42:35.864Z,73.86
2022-08-05T19:45:06.538Z,74.37
2022-08-05T19:47:37.509Z,74.32
2022-08-05T19:50:10.540Z,74.24
2022-08-05T19:52:41.895Z,74.62
2022-08-05T19:56:13.924Z,74.81
2022-08-05T19:58:28.853Z,74.99
2022-08-05T20:00:52.767Z,74.94
2022-08-05T20:03:21.197Z,75.01
2022-08-05T20:05:51.406Z,74.90
2022-08-05T20:08:24.507Z,75.29
2022-08-05T20:10:53.495Z,75.26
2022-08-05T20:13:30.146Z,75.35
2022-08-05T20:16:10.974Z,75.54
2022-08-05T20:18:39.342Z,75.56
2022-08-05T20:21:08.703Z,76.02
2022-08-05T20:23:51.522Z,76.04
2022-08-05T20:26:24.641Z,75.89
2022-08-05T20:28:57.397Z,76.34
2022-08-05T20:31:41.967Z,76.17
2022-08-05T20:34:12.684Z,76.49
2022-08-05T20:36:43.064Z,76.33
2022-08-05T20:39:16.473Z,76.80
2022-08-05T20:41:46.729Z,76.75
2022-08-05T20:44:29.901Z,76.96
2022-08-05T20:47:00.884Z,77.15
2022-08-05T20:49:29.630Z,76.91
2022-08-05T20:52:01.715Z,76.94
2022-08-05T20:54:43.463Z,77.07
2022-08-05T20:57:24.571Z,77.41
2022-08-05T21:00:41.546Z,77.32
2022-08-05T21:03:06.277Z,77.57
2022-08-05T21:05:53.372Z,77.65
2022-08-05T21:08:26.788Z,78.08
2022-08-05T21:10:58.421Z,77.65
2022-08-05T21:13:55.802Z,78.18
2022-08-05T21:16:15.667Z,78.04
2022-08-05T21:18:45.359Z,78.11
2022-08-05T21:21:13.718Z,78.24
2022-08-05T21:23:42.055Z,78.18
2022-08-05T21:26:12.305Z,78.51
2022-08-05T21:28:47.611Z,78.62
2022-08-05T21:31:19.644Z,78.73
2022-08-05T21:33:49.362Z,78.54
2022-08-05T21:36:27.588Z,78.67
2022-08-05T21:38:58.658Z,78.74
2022-08-05T21:41:32.970Z,78.87
2022-08-05T21:44:04.395Z,78.78
2022-08-05T21:46:34.581Z,79.02
2022-08-05T21:49:04.786Z,79.01
2022-08-05T21:52:22.980Z,79.24
2022-08-05T21:54:28.013Z,79.43
2022-08-05T22:00:04.007Z,79.25
2022-08-05T22:02:34.940Z,79.32
2022-08-05T22:05:04.624Z,79.38
2022-08-05T22:07:40.452Z,79.48
2022-08-05T22:10:26.787Z,79.56
2022-08-05T22:12:58.787Z,79.57
2022-08-05T22:16:01.210Z,79.89
2022-08-05T22:18:16.317Z,79.72
2022-08-05T22:20:47.927Z,79.80
2022-08-05T22:24:00.948Z,79.74
2022-08-05T22:26:49.913Z,79.85
2022-08-05T22:29:26.679Z,80.12
2022-08-05T22:31:59.527Z,80.10
2022-08-05T22:34:28.709Z,79.88
2022-08-05T22:36:59.100Z,79.82
2022-08-05T22:39:33.407Z,79.72
2022-08-05T22:42:10.353Z,80.10
2022-08-05T22:44:48.559Z,79.89
2022-08-05T22:47:29.517Z,80.01
2022-08-05T22:50:21.870Z,79.89
2022-08-05T22:52:49.606Z,80.21
2022-08-05T22:55:21.292Z,80.36
2022-08-05T22:57:50.912Z,80.13
2022-08-05T23:00:22.257Z,80.34
2022-08-05T23:02:52.159Z,80.20
2022-08-05T23:05:22.149Z,80.58
2022-08-05T23:07:51.213Z,80.51
2022-08-05T23:10:20.860Z,80.62
2022-08-05T23:12:54.399Z,80.35
2022-08-05T23:15:29.093Z,80.40
2022-08-05T23:18:02.091Z,80.24
2022-08-05T23:20:33.204Z,80.62
2022-08-05T23:23:06.010Z,80.53
2022-08-05T23:25:54.831Z,80.73
2022-08-05T23:28:27.750Z,80.33
2022-08-05T23:31:16.062Z,80.46
2022-08-05T23:34:05.106Z,80.63
2022-08-05T23:36:39.913Z,80.76
2022-08-05T23:39:17.174Z,80.64
2022-08-05T23:41:52.200Z,80.49
2022-08-05T23:44:22.706Z,80.77
2022-08-05T23:46:57.643Z,80.78
2022-08-05T23:49:35.910Z,80.88
2022-08-05T23:52:25.354Z,80.84
2022-08-05T23:54:55.119Z,80.95
2022-08-05T23:57:24.331Z,80.80
